Terminal Aerodrome Forecast
Issued by NWS

Home | Current Version | Previous Version | Graphics & Text | Print | Product List | Glossary On
Versions: 1 2 3 4 5 6 7 8 9 10 11 12 13 14 15 16 17
000
FTUS43 KMPX 240520
TAFRWF
TAF
KRWF 240520Z 2406/2506 28009KT P6SM FEW150
     FM242200 28005KT P6SM OVC020
     FM250000 01005KT 1 1/2SM -SN OVC012
      TEMPO 2503/2506 3/4SM -SN VV006=

USA.gov is the U.S. government's official web portal to all federal, state and local government web resources and services.